sensor_id;sensor_type;location;lat;lon;timestamp;temperature;humidity
54788;DHT22;59598;48.112;16.280;2023-07-09T00:00:20;18.40;27.20
54788;DHT22;59598;48.112;16.280;2023-07-09T00:02:59;18.40;90.90
54788;DHT22;59598;48.112;16.280;2023-07-09T00:05:33;18.40;1.00
54788;DHT22;59598;48.112;16.280;2023-07-09T00:08:26;18.50;1.00
54788;DHT22;59598;48.112;16.280;2023-07-09T00:11:00;18.40;1.00
54788;DHT22;59598;48.112;16.280;2023-07-09T00:13:34;18.40;99.90
54788;DHT22;59598;48.112;16.280;2023-07-09T00:16:24;18.40;99.90
54788;DHT22;59598;48.112;16.280;2023-07-09T00:18:58;18.30;99.90
54788;DHT22;59598;48.112;16.280;2023-07-09T00:21:33;18.20;1.00
54788;DHT22;59598;48.112;16.280;2023-07-09T00:24:05;18.10;1.00
54788;DHT22;59598;48.112;16.280;2023-07-09T00:26:40;18.10;1.00
54788;DHT22;59598;48.112;16.280;2023-07-09T00:29:16;18.10;1.00
54788;DHT22;59598;48.112;16.280;2023-07-09T00:31:47;18.10;1.00
54788;DHT22;59598;48.112;16.280;2023-07-09T00:34:22;18.10;1.00
54788;DHT22;59598;48.112;16.280;2023-07-09T00:36:55;18.10;1.00
54788;DHT22;59598;48.112;16.280;2023-07-09T00:39:30;18.00;1.00
54788;DHT22;59598;48.112;16.280;2023-07-09T00:42:04;17.90;1.00
54788;DHT22;59598;48.112;16.280;2023-07-09T00:44:36;17.90;40.70
54788;DHT22;59598;48.112;16.280;2023-07-09T00:50:18;17.80;14.80
54788;DHT22;59598;48.112;16.280;2023-07-09T00:53:13;17.80;67.00
54788;DHT22;59598;48.112;16.280;2023-07-09T00:55:56;17.80;99.90
54788;DHT22;59598;48.112;16.280;2023-07-09T00:58:35;17.70;99.90
54788;DHT22;59598;48.112;16.280;2023-07-09T01:03:53;17.70;99.90
54788;DHT22;59598;48.112;16.280;2023-07-09T01:06:44;17.70;99.90
54788;DHT22;59598;48.112;16.280;2023-07-09T01:09:20;17.60;99.90
54788;DHT22;59598;48.112;16.280;2023-07-09T01:11:53;17.50;99.90
54788;DHT22;59598;48.112;16.280;2023-07-09T01:14:30;17.40;1.00
54788;DHT22;59598;48.112;16.280;2023-07-09T01:17:05;17.30;1.00
54788;DHT22;59598;48.112;16.280;2023-07-09T01:19:41;17.30;1.00
54788;DHT22;59598;48.112;16.280;2023-07-09T01:22:18;17.40;1.00
54788;DHT22;59598;48.112;16.280;2023-07-09T01:25:05;17.40;1.00
54788;DHT22;59598;48.112;16.280;2023-07-09T01:27:41;17.30;1.00
54788;DHT22;59598;48.112;16.280;2023-07-09T01:30:18;17.30;1.00
54788;DHT22;59598;48.112;16.280;2023-07-09T01:32:57;17.20;1.00
54788;DHT22;59598;48.112;16.280;2023-07-09T01:35:32;17.20;1.00
54788;DHT22;59598;48.112;16.280;2023-07-09T01:38:08;17.20;1.00
54788;DHT22;59598;48.112;16.280;2023-07-09T01:40:39;17.10;1.00
54788;DHT22;59598;48.112;16.280;2023-07-09T01:43:16;17.10;1.00
54788;DHT22;59598;48.112;16.280;2023-07-09T01:45:48;17.00;1.00
54788;DHT22;59598;48.112;16.280;2023-07-09T01:48:25;17.00;1.00
54788;DHT22;59598;48.112;16.280;2023-07-09T01:50:56;17.00;1.00
54788;DHT22;59598;48.112;16.280;2023-07-09T01:53:29;16.90;1.00
54788;DHT22;59598;48.112;16.280;2023-07-09T01:56:03;16.90;1.00
54788;DHT22;59598;48.112;16.280;2023-07-09T01:58:35;16.90;1.00
54788;DHT22;59598;48.112;16.280;2023-07-09T02:01:07;16.90;1.00
54788;DHT22;59598;48.112;16.280;2023-07-09T02:03:42;16.90;1.00
54788;DHT22;59598;48.112;16.280;2023-07-09T02:06:13;16.80;1.00
54788;DHT22;59598;48.112;16.280;2023-07-09T02:08:45;16.80;1.00
54788;DHT22;59598;48.112;16.280;2023-07-09T02:11:17;16.80;1.00
54788;DHT22;59598;48.112;16.280;2023-07-09T02:13:48;16.70;1.00
54788;DHT22;59598;48.112;16.280;2023-07-09T02:16:21;16.70;1.00
54788;DHT22;59598;48.112;16.280;2023-07-09T02:18:55;16.70;1.00
54788;DHT22;59598;48.112;16.280;2023-07-09T02:21:26;16.70;1.00
54788;DHT22;59598;48.112;16.280;2023-07-09T02:24:00;16.70;1.00
54788;DHT22;59598;48.112;16.280;2023-07-09T02:26:33;16.60;1.00
54788;DHT22;59598;48.112;16.280;2023-07-09T02:29:07;16.60;1.00
54788;DHT22;59598;48.112;16.280;2023-07-09T02:31:38;16.50;1.00
54788;DHT22;59598;48.112;16.280;2023-07-09T02:34:11;16.50;1.00
54788;DHT22;59598;48.112;16.280;2023-07-09T02:36:46;16.50;1.00
54788;DHT22;59598;48.112;16.280;2023-07-09T02:39:17;16.50;1.00
54788;DHT22;59598;48.112;16.280;2023-07-09T02:41:50;16.40;1.00
54788;DHT22;59598;48.112;16.280;2023-07-09T02:44:22;16.40;1.00
54788;DHT22;59598;48.112;16.280;2023-07-09T02:46:56;16.40;1.00
54788;DHT22;59598;48.112;16.280;2023-07-09T02:49:30;16.40;1.00
54788;DHT22;59598;48.112;16.280;2023-07-09T02:52:05;16.40;1.00
54788;DHT22;59598;48.112;16.280;2023-07-09T02:54:58;16.40;1.00
54788;DHT22;59598;48.112;16.280;2023-07-09T02:57:32;16.30;1.00
54788;DHT22;59598;48.112;16.280;2023-07-09T03:00:06;16.40;1.00
54788;DHT22;59598;48.112;16.280;2023-07-09T03:02:42;16.30;1.00
54788;DHT22;59598;48.112;16.280;2023-07-09T03:05:16;16.30;1.00
54788;DHT22;59598;48.112;16.280;2023-07-09T03:07:48;16.20;1.00
54788;DHT22;59598;48.112;16.280;2023-07-09T03:10:20;16.30;1.00
54788;DHT22;59598;48.112;16.280;2023-07-09T03:12:54;16.30;1.00
54788;DHT22;59598;48.112;16.280;2023-07-09T03:15:28;16.40;1.00
54788;DHT22;59598;48.112;16.280;2023-07-09T03:18:02;16.40;1.00
54788;DHT22;59598;48.112;16.280;2023-07-09T03:20:36;16.40;1.00
54788;DHT22;59598;48.112;16.280;2023-07-09T03:23:10;16.40;1.00
54788;DHT22;59598;48.112;16.280;2023-07-09T03:25:42;16.60;1.00
54788;DHT22;59598;48.112;16.280;2023-07-09T03:28:16;16.60;1.00
54788;DHT22;59598;48.112;16.280;2023-07-09T03:30:53;16.70;1.00
54788;DHT22;59598;48.112;16.280;2023-07-09T03:33:25;16.70;1.00
54788;DHT22;59598;48.112;16.280;2023-07-09T03:35:56;16.90;1.00
54788;DHT22;59598;48.112;16.280;2023-07-09T03:38:27;17.00;1.00
54788;DHT22;59598;48.112;16.280;2023-07-09T03:40:59;17.20;1.00
54788;DHT22;59598;48.112;16.280;2023-07-09T03:43:31;17.30;1.00
54788;DHT22;59598;48.112;16.280;2023-07-09T03:46:02;17.40;1.00
54788;DHT22;59598;48.112;16.280;2023-07-09T03:48:34;17.60;1.00
54788;DHT22;59598;48.112;16.280;2023-07-09T03:51:06;17.70;1.00
54788;DHT22;59598;48.112;16.280;2023-07-09T03:53:40;17.90;1.00
54788;DHT22;59598;48.112;16.280;2023-07-09T03:56:11;18.10;1.00
54788;DHT22;59598;48.112;16.280;2023-07-09T03:58:43;18.30;1.00
54788;DHT22;59598;48.112;16.280;2023-07-09T04:01:17;18.50;1.00
54788;DHT22;59598;48.112;16.280;2023-07-09T04:03:48;18.70;99.90
54788;DHT22;59598;48.112;16.280;2023-07-09T04:06:22;18.90;94.50
54788;DHT22;59598;48.112;16.280;2023-07-09T04:08:53;19.10;1.00
54788;DHT22;59598;48.112;16.280;2023-07-09T04:11:28;19.40;1.00
54788;DHT22;59598;48.112;16.280;2023-07-09T04:13:59;19.70;99.90
54788;DHT22;59598;48.112;16.280;2023-07-09T04:16:32;19.90;99.90
54788;DHT22;59598;48.112;16.280;2023-07-09T04:19:03;20.00;1.00
54788;DHT22;59598;48.112;16.280;2023-07-09T04:21:37;19.90;17.40
54788;DHT22;59598;48.112;16.280;2023-07-09T04:24:11;20.10;1.00
54788;DHT22;59598;48.112;16.280;2023-07-09T04:26:42;20.30;1.00
54788;DHT22;59598;48.112;16.280;2023-07-09T04:29:14;20.60;1.00
54788;DHT22;59598;48.112;16.280;2023-07-09T04:31:45;20.90;99.90
54788;DHT22;59598;48.112;16.280;2023-07-09T04:34:16;21.10;28.40
54788;DHT22;59598;48.112;16.280;2023-07-09T04:36:48;21.30;1.00
54788;DHT22;59598;48.112;16.280;2023-07-09T04:39:19;21.50;1.00
54788;DHT22;59598;48.112;16.280;2023-07-09T04:41:52;21.60;99.90
54788;DHT22;59598;48.112;16.280;2023-07-09T04:44:23;21.80;99.90
54788;DHT22;59598;48.112;16.280;2023-07-09T04:46:55;21.90;1.00
54788;DHT22;59598;48.112;16.280;2023-07-09T04:49:27;22.20;1.00
54788;DHT22;59598;48.112;16.280;2023-07-09T04:52:04;22.40;1.00
54788;DHT22;59598;48.112;16.280;2023-07-09T04:57:13;22.80;99.90
54788;DHT22;59598;48.112;16.280;2023-07-09T04:59:44;22.90;99.90
54788;DHT22;59598;48.112;16.280;2023-07-09T05:02:18;23.00;99.90
54788;DHT22;59598;48.112;16.280;2023-07-09T05:04:50;23.00;81.60
54788;DHT22;59598;48.112;16.280;2023-07-09T05:07:26;23.20;1.00
54788;DHT22;59598;48.112;16.280;2023-07-09T05:09:58;23.40;1.00
54788;DHT22;59598;48.112;16.280;2023-07-09T05:12:32;23.40;1.00
54788;DHT22;59598;48.112;16.280;2023-07-09T05:15:09;23.00;1.00
54788;DHT22;59598;48.112;16.280;2023-07-09T05:17:43;23.10;1.00
54788;DHT22;59598;48.112;16.280;2023-07-09T05:20:14;23.40;1.00
54788;DHT22;59598;48.112;16.280;2023-07-09T05:22:49;23.70;1.00
54788;DHT22;59598;48.112;16.280;2023-07-09T05:25:21;23.90;1.00
54788;DHT22;59598;48.112;16.280;2023-07-09T05:27:53;24.10;1.00
54788;DHT22;59598;48.112;16.280;2023-07-09T05:30:26;24.30;1.00
54788;DHT22;59598;48.112;16.280;2023-07-09T05:33:00;24.20;1.00
54788;DHT22;59598;48.112;16.280;2023-07-09T05:35:31;24.10;1.00
54788;DHT22;59598;48.112;16.280;2023-07-09T05:38:02;23.90;1.00
54788;DHT22;59598;48.112;16.280;2023-07-09T05:40:33;23.80;1.00
54788;DHT22;59598;48.112;16.280;2023-07-09T05:43:13;24.10;1.00
54788;DHT22;59598;48.112;16.280;2023-07-09T05:45:47;24.00;1.00
54788;DHT22;59598;48.112;16.280;2023-07-09T05:48:21;24.10;1.00
54788;DHT22;59598;48.112;16.280;2023-07-09T05:50:55;24.10;1.00
54788;DHT22;59598;48.112;16.280;2023-07-09T05:53:27;24.50;1.00
54788;DHT22;59598;48.112;16.280;2023-07-09T05:55:59;24.80;1.00
54788;DHT22;59598;48.112;16.280;2023-07-09T05:58:31;24.90;99.90
54788;DHT22;59598;48.112;16.280;2023-07-09T06:01:02;25.30;99.90
54788;DHT22;59598;48.112;16.280;2023-07-09T06:03:33;25.70;99.90
54788;DHT22;59598;48.112;16.280;2023-07-09T06:06:07;26.10;1.00
54788;DHT22;59598;48.112;16.280;2023-07-09T06:08:39;25.90;1.00
54788;DHT22;59598;48.112;16.280;2023-07-09T06:11:13;26.40;1.00
54788;DHT22;59598;48.112;16.280;2023-07-09T06:13:45;27.10;1.00
54788;DHT22;59598;48.112;16.280;2023-07-09T06:16:20;27.60;1.00
54788;DHT22;59598;48.112;16.280;2023-07-09T06:18:54;28.00;99.90
54788;DHT22;59598;48.112;16.280;2023-07-09T06:21:30;28.50;99.90
54788;DHT22;59598;48.112;16.280;2023-07-09T06:24:06;29.00;99.90
54788;DHT22;59598;48.112;16.280;2023-07-09T06:26:38;29.50;99.90
54788;DHT22;59598;48.112;16.280;2023-07-09T06:29:09;29.50;99.90
54788;DHT22;59598;48.112;16.280;2023-07-09T06:31:40;29.30;1.00
54788;DHT22;59598;48.112;16.280;2023-07-09T06:34:13;29.50;1.00
54788;DHT22;59598;48.112;16.280;2023-07-09T06:36:45;29.70;1.00
54788;DHT22;59598;48.112;16.280;2023-07-09T06:39:20;30.00;1.00
54788;DHT22;59598;48.112;16.280;2023-07-09T06:41:52;30.50;1.00
54788;DHT22;59598;48.112;16.280;2023-07-09T06:44:25;30.70;1.00
54788;DHT22;59598;48.112;16.280;2023-07-09T06:46:59;31.00;1.00
54788;DHT22;59598;48.112;16.280;2023-07-09T06:49:30;31.10;1.00
54788;DHT22;59598;48.112;16.280;2023-07-09T06:52:04;31.40;1.00
54788;DHT22;59598;48.112;16.280;2023-07-09T06:54:36;31.80;1.00
54788;DHT22;59598;48.112;16.280;2023-07-09T06:57:07;32.20;1.00
54788;DHT22;59598;48.112;16.280;2023-07-09T06:59:42;32.30;1.00
54788;DHT22;59598;48.112;16.280;2023-07-09T07:02:18;32.00;1.00
54788;DHT22;59598;48.112;16.280;2023-07-09T07:04:53;31.70;1.00
54788;DHT22;59598;48.112;16.280;2023-07-09T07:07:25;31.50;1.00
54788;DHT22;59598;48.112;16.280;2023-07-09T07:10:02;31.40;1.00
54788;DHT22;59598;48.112;16.280;2023-07-09T07:12:46;31.90;1.00
54788;DHT22;59598;48.112;16.280;2023-07-09T07:15:22;31.90;1.00
54788;DHT22;59598;48.112;16.280;2023-07-09T07:17:53;32.20;1.00
54788;DHT22;59598;48.112;16.280;2023-07-09T07:20:24;32.40;1.00
54788;DHT22;59598;48.112;16.280;2023-07-09T07:22:57;32.20;1.00
54788;DHT22;59598;48.112;16.280;2023-07-09T07:25:28;32.60;99.90
54788;DHT22;59598;48.112;16.280;2023-07-09T07:28:04;32.90;1.00
54788;DHT22;59598;48.112;16.280;2023-07-09T07:30:35;32.80;99.90
54788;DHT22;59598;48.112;16.280;2023-07-09T07:33:06;33.10;99.90
54788;DHT22;59598;48.112;16.280;2023-07-09T07:35:40;33.40;99.90
54788;DHT22;59598;48.112;16.280;2023-07-09T07:38:11;33.30;99.90
54788;DHT22;59598;48.112;16.280;2023-07-09T07:40:45;33.00;99.90
54788;DHT22;59598;48.112;16.280;2023-07-09T07:43:17;32.80;99.90
54788;DHT22;59598;48.112;16.280;2023-07-09T07:45:48;32.90;99.90
54788;DHT22;59598;48.112;16.280;2023-07-09T07:48:19;32.90;99.90
54788;DHT22;59598;48.112;16.280;2023-07-09T07:51:03;32.70;99.90
54788;DHT22;59598;48.112;16.280;2023-07-09T07:53:35;32.80;99.90
54788;DHT22;59598;48.112;16.280;2023-07-09T07:56:06;32.90;99.90
54788;DHT22;59598;48.112;16.280;2023-07-09T07:58:40;33.10;99.90
54788;DHT22;59598;48.112;16.280;2023-07-09T08:01:11;33.40;99.90
54788;DHT22;59598;48.112;16.280;2023-07-09T08:03:42;33.30;99.90
54788;DHT22;59598;48.112;16.280;2023-07-09T08:06:16;33.30;99.90
54788;DHT22;59598;48.112;16.280;2023-07-09T08:08:50;33.40;99.90
54788;DHT22;59598;48.112;16.280;2023-07-09T08:11:21;33.30;99.90
54788;DHT22;59598;48.112;16.280;2023-07-09T08:13:52;33.10;99.90
54788;DHT22;59598;48.112;16.280;2023-07-09T08:16:24;32.80;99.90
54788;DHT22;59598;48.112;16.280;2023-07-09T08:19:02;32.90;99.90
54788;DHT22;59598;48.112;16.280;2023-07-09T08:21:34;32.80;99.90
54788;DHT22;59598;48.112;16.280;2023-07-09T08:24:10;33.20;99.90
54788;DHT22;59598;48.112;16.280;2023-07-09T08:26:41;33.60;99.90
54788;DHT22;59598;48.112;16.280;2023-07-09T08:29:18;34.20;99.90
54788;DHT22;59598;48.112;16.280;2023-07-09T08:31:52;34.50;99.90
54788;DHT22;59598;48.112;16.280;2023-07-09T08:34:27;34.50;99.90
54788;DHT22;59598;48.112;16.280;2023-07-09T08:37:02;34.60;99.90
54788;DHT22;59598;48.112;16.280;2023-07-09T08:39:33;34.60;99.90
54788;DHT22;59598;48.112;16.280;2023-07-09T08:42:07;34.60;99.90
54788;DHT22;59598;48.112;16.280;2023-07-09T08:48:22;34.20;99.90
54788;DHT22;59598;48.112;16.280;2023-07-09T08:51:12;34.30;99.90
54788;DHT22;59598;48.112;16.280;2023-07-09T08:53:57;34.50;99.90
54788;DHT22;59598;48.112;16.280;2023-07-09T08:56:36;35.00;99.90
54788;DHT22;59598;48.112;16.280;2023-07-09T08:59:08;35.20;99.90
54788;DHT22;59598;48.112;16.280;2023-07-09T09:01:53;35.30;99.90
54788;DHT22;59598;48.112;16.280;2023-07-09T09:04:35;35.50;99.90
54788;DHT22;59598;48.112;16.280;2023-07-09T09:07:19;35.50;99.90
54788;DHT22;59598;48.112;16.280;2023-07-09T09:09:58;35.20;54.60
54788;DHT22;59598;48.112;16.280;2023-07-09T09:12:38;35.30;99.90
54788;DHT22;59598;48.112;16.280;2023-07-09T09:15:19;35.10;99.90
54788;DHT22;59598;48.112;16.280;2023-07-09T09:17:54;34.90;80.60
54788;DHT22;59598;48.112;16.280;2023-07-09T09:20:32;34.90;99.90
54788;DHT22;59598;48.112;16.280;2023-07-09T09:25:49;35.10;64.40
54788;DHT22;59598;48.112;16.280;2023-07-09T09:28:26;35.30;99.90
54788;DHT22;59598;48.112;16.280;2023-07-09T09:30:58;35.60;99.90
54788;DHT22;59598;48.112;16.280;2023-07-09T09:33:40;35.50;99.90
54788;DHT22;59598;48.112;16.280;2023-07-09T09:36:21;35.00;99.90
54788;DHT22;59598;48.112;16.280;2023-07-09T09:38:53;34.80;99.90
54788;DHT22;59598;48.112;16.280;2023-07-09T09:41:31;35.60;99.90
54788;DHT22;59598;48.112;16.280;2023-07-09T09:44:05;36.40;99.90
54788;DHT22;59598;48.112;16.280;2023-07-09T09:46:37;36.90;99.90
54788;DHT22;59598;48.112;16.280;2023-07-09T09:49:09;37.20;99.90
54788;DHT22;59598;48.112;16.280;2023-07-09T09:51:44;37.10;99.90
54788;DHT22;59598;48.112;16.280;2023-07-09T09:54:21;37.00;70.30
54788;DHT22;59598;48.112;16.280;2023-07-09T09:56:55;36.70;71.90
54788;DHT22;59598;48.112;16.280;2023-07-09T09:59:33;36.60;54.40
54788;DHT22;59598;48.112;16.280;2023-07-09T10:02:24;37.00;82.10
54788;DHT22;59598;48.112;16.280;2023-07-09T10:04:56;35.60;99.90
54788;DHT22;59598;48.112;16.280;2023-07-09T10:07:36;35.30;99.90
54788;DHT22;59598;48.112;16.280;2023-07-09T10:10:13;35.90;99.90
54788;DHT22;59598;48.112;16.280;2023-07-09T10:12:57;36.40;99.90
54788;DHT22;59598;48.112;16.280;2023-07-09T10:15:43;36.20;99.90
54788;DHT22;59598;48.112;16.280;2023-07-09T10:19:07;36.50;99.90
54788;DHT22;59598;48.112;16.280;2023-07-09T10:21:28;36.50;99.90
54788;DHT22;59598;48.112;16.280;2023-07-09T10:26:48;37.70;99.90
54788;DHT22;59598;48.112;16.280;2023-07-09T10:29:26;38.40;99.90
54788;DHT22;59598;48.112;16.280;2023-07-09T10:32:28;39.00;99.90
54788;DHT22;59598;48.112;16.280;2023-07-09T10:40:49;39.40;99.90
54788;DHT22;59598;48.112;16.280;2023-07-09T10:43:52;39.50;99.90
54788;DHT22;59598;48.112;16.280;2023-07-09T10:46:30;40.00;99.90
54788;DHT22;59598;48.112;16.280;2023-07-09T10:49:04;40.60;99.90
54788;DHT22;59598;48.112;16.280;2023-07-09T10:51:50;40.70;99.90
54788;DHT22;59598;48.112;16.280;2023-07-09T10:54:36;40.80;99.90
54788;DHT22;59598;48.112;16.280;2023-07-09T10:57:22;41.20;99.90
54788;DHT22;59598;48.112;16.280;2023-07-09T11:00:00;41.50;99.90
54788;DHT22;59598;48.112;16.280;2023-07-09T11:02:37;41.70;99.90
54788;DHT22;59598;48.112;16.280;2023-07-09T11:05:11;39.60;99.90
54788;DHT22;59598;48.112;16.280;2023-07-09T11:07:54;39.00;99.90
54788;DHT22;59598;48.112;16.280;2023-07-09T11:10:34;40.70;99.90
54788;DHT22;59598;48.112;16.280;2023-07-09T11:13:18;41.70;99.90
54788;DHT22;59598;48.112;16.280;2023-07-09T11:15:51;43.50;99.90
54788;DHT22;59598;48.112;16.280;2023-07-09T11:18:33;43.50;99.90
54788;DHT22;59598;48.112;16.280;2023-07-09T11:21:14;43.40;99.90
54788;DHT22;59598;48.112;16.280;2023-07-09T11:23:52;42.00;99.90
54788;DHT22;59598;48.112;16.280;2023-07-09T11:26:30;42.30;99.90
54788;DHT22;59598;48.112;16.280;2023-07-09T11:31:40;43.00;99.90
54788;DHT22;59598;48.112;16.280;2023-07-09T11:37:00;44.60;99.90
54788;DHT22;59598;48.112;16.280;2023-07-09T11:42:33;43.50;99.90
54788;DHT22;59598;48.112;16.280;2023-07-09T11:45:09;44.00;99.90
54788;DHT22;59598;48.112;16.280;2023-07-09T11:47:49;43.70;99.90
54788;DHT22;59598;48.112;16.280;2023-07-09T11:50:35;42.20;68.80
54788;DHT22;59598;48.112;16.280;2023-07-09T11:56:08;42.60;95.10
54788;DHT22;59598;48.112;16.280;2023-07-09T11:58:53;43.90;44.30
54788;DHT22;59598;48.112;16.280;2023-07-09T12:01:42;44.60;34.50
54788;DHT22;59598;48.112;16.280;2023-07-09T12:04:18;44.20;16.50
54788;DHT22;59598;48.112;16.280;2023-07-09T12:06:57;44.60;13.70
54788;DHT22;59598;48.112;16.280;2023-07-09T12:09:46;45.80;22.40
54788;DHT22;59598;48.112;16.280;2023-07-09T12:12:26;46.70;81.50
54788;DHT22;59598;48.112;16.280;2023-07-09T12:14:59;45.10;99.90
54788;DHT22;59598;48.112;16.280;2023-07-09T12:17:38;43.50;99.90
54788;DHT22;59598;48.112;16.280;2023-07-09T12:20:12;44.00;9.40
54788;DHT22;59598;48.112;16.280;2023-07-09T12:22:44;44.20;99.90
54788;DHT22;59598;48.112;16.280;2023-07-09T12:25:24;45.10;3.20
54788;DHT22;59598;48.112;16.280;2023-07-09T12:27:58;47.00;58.20
54788;DHT22;59598;48.112;16.280;2023-07-09T12:30:35;46.80;99.90
54788;DHT22;59598;48.112;16.280;2023-07-09T12:33:07;44.20;19.50
54788;DHT22;59598;48.112;16.280;2023-07-09T12:35:41;44.50;31.00
54788;DHT22;59598;48.112;16.280;2023-07-09T12:38:27;44.20;29.60
54788;DHT22;59598;48.112;16.280;2023-07-09T12:41:00;44.80;79.40
54788;DHT22;59598;48.112;16.280;2023-07-09T12:43:32;45.80;41.80
54788;DHT22;59598;48.112;16.280;2023-07-09T12:46:05;46.80;99.90
54788;DHT22;59598;48.112;16.280;2023-07-09T12:48:39;45.30;34.30
54788;DHT22;59598;48.112;16.280;2023-07-09T12:51:20;44.50;39.20
54788;DHT22;59598;48.112;16.280;2023-07-09T12:56:42;45.80;90.10
54788;DHT22;59598;48.112;16.280;2023-07-09T13:02:01;45.30;91.70
54788;DHT22;59598;48.112;16.280;2023-07-09T13:04:39;45.10;61.70
54788;DHT22;59598;48.112;16.280;2023-07-09T13:09:57;43.30;10.40
54788;DHT22;59598;48.112;16.280;2023-07-09T13:12:32;43.40;14.80
54788;DHT22;59598;48.112;16.280;2023-07-09T13:16:05;44.50;28.60
54788;DHT22;59598;48.112;16.280;2023-07-09T13:18:13;44.80;33.70
54788;DHT22;59598;48.112;16.280;2023-07-09T13:20:46;46.10;39.40
54788;DHT22;59598;48.112;16.280;2023-07-09T13:23:27;46.90;61.60
54788;DHT22;59598;48.112;16.280;2023-07-09T13:26:00;46.30;99.90
54788;DHT22;59598;48.112;16.280;2023-07-09T13:28:32;45.90;99.90
54788;DHT22;59598;48.112;16.280;2023-07-09T13:31:18;44.80;71.20
54788;DHT22;59598;48.112;16.280;2023-07-09T13:33:55;40.40;1.00
54788;DHT22;59598;48.112;16.280;2023-07-09T13:36:29;40.40;17.60
54788;DHT22;59598;48.112;16.280;2023-07-09T13:39:03;39.30;8.20
54788;DHT22;59598;48.112;16.280;2023-07-09T13:41:38;40.00;35.00
54788;DHT22;59598;48.112;16.280;2023-07-09T13:44:17;41.10;25.90
54788;DHT22;59598;48.112;16.280;2023-07-09T13:46:48;43.10;23.70
54788;DHT22;59598;48.112;16.280;2023-07-09T13:49:22;43.90;1.00
54788;DHT22;59598;48.112;16.280;2023-07-09T13:51:57;41.40;16.40
54788;DHT22;59598;48.112;16.280;2023-07-09T13:54:37;42.60;1.00
54788;DHT22;59598;48.112;16.280;2023-07-09T13:57:14;44.50;21.90
54788;DHT22;59598;48.112;16.280;2023-07-09T13:59:46;45.80;21.00
54788;DHT22;59598;48.112;16.280;2023-07-09T14:02:28;46.40;1.00
54788;DHT22;59598;48.112;16.280;2023-07-09T14:05:06;44.60;1.00
54788;DHT22;59598;48.112;16.280;2023-07-09T14:07:42;44.60;99.90
54788;DHT22;59598;48.112;16.280;2023-07-09T14:10:14;44.80;84.90
54788;DHT22;59598;48.112;16.280;2023-07-09T14:12:49;45.40;71.50
54788;DHT22;59598;48.112;16.280;2023-07-09T14:15:21;43.40;1.00
54788;DHT22;59598;48.112;16.280;2023-07-09T14:17:57;43.60;9.90
54788;DHT22;59598;48.112;16.280;2023-07-09T14:20:29;44.70;36.40
54788;DHT22;59598;48.112;16.280;2023-07-09T14:23:00;45.10;15.90
54788;DHT22;59598;48.112;16.280;2023-07-09T14:25:32;46.10;60.70
54788;DHT22;59598;48.112;16.280;2023-07-09T14:28:20;46.10;92.20
54788;DHT22;59598;48.112;16.280;2023-07-09T14:30:52;46.90;1.90
54788;DHT22;59598;48.112;16.280;2023-07-09T14:33:26;46.80;64.10
54788;DHT22;59598;48.112;16.280;2023-07-09T14:36:00;47.30;73.50
54788;DHT22;59598;48.112;16.280;2023-07-09T14:38:34;47.50;92.80
54788;DHT22;59598;48.112;16.280;2023-07-09T14:41:24;45.60;1.00
54788;DHT22;59598;48.112;16.280;2023-07-09T14:46:59;47.70;1.00
54788;DHT22;59598;48.112;16.280;2023-07-09T14:49:31;48.70;8.20
54788;DHT22;59598;48.112;16.280;2023-07-09T14:52:02;46.50;1.00
54788;DHT22;59598;48.112;16.280;2023-07-09T14:54:40;45.20;1.00
54788;DHT22;59598;48.112;16.280;2023-07-09T14:57:21;45.30;1.00
54788;DHT22;59598;48.112;16.280;2023-07-09T14:59:53;46.00;1.00
54788;DHT22;59598;48.112;16.280;2023-07-09T15:02:37;46.70;1.00
54788;DHT22;59598;48.112;16.280;2023-07-09T15:05:22;47.10;1.00
54788;DHT22;59598;48.112;16.280;2023-07-09T15:07:58;46.70;1.00
54788;DHT22;59598;48.112;16.280;2023-07-09T15:10:32;47.50;1.00
54788;DHT22;59598;48.112;16.280;2023-07-09T15:13:04;47.10;4.90
54788;DHT22;59598;48.112;16.280;2023-07-09T15:15:39;46.00;1.00
54788;DHT22;59598;48.112;16.280;2023-07-09T15:18:16;45.20;1.00
54788;DHT22;59598;48.112;16.280;2023-07-09T15:20:55;45.60;1.00
54788;DHT22;59598;48.112;16.280;2023-07-09T15:23:29;44.00;1.00
54788;DHT22;59598;48.112;16.280;2023-07-09T15:26:01;43.60;1.00
54788;DHT22;59598;48.112;16.280;2023-07-09T15:28:35;44.20;41.90
54788;DHT22;59598;48.112;16.280;2023-07-09T15:31:10;44.80;1.00
54788;DHT22;59598;48.112;16.280;2023-07-09T15:33:47;44.40;1.00
54788;DHT22;59598;48.112;16.280;2023-07-09T15:36:21;44.20;1.00
54788;DHT22;59598;48.112;16.280;2023-07-09T15:38:55;42.20;1.00
54788;DHT22;59598;48.112;16.280;2023-07-09T15:41:31;41.90;1.00
54788;DHT22;59598;48.112;16.280;2023-07-09T15:44:02;40.80;1.00
54788;DHT22;59598;48.112;16.280;2023-07-09T15:46:34;39.70;1.00
54788;DHT22;59598;48.112;16.280;2023-07-09T15:49:10;40.00;1.00
54788;DHT22;59598;48.112;16.280;2023-07-09T15:51:48;40.20;1.00
54788;DHT22;59598;48.112;16.280;2023-07-09T15:54:23;40.40;1.00
54788;DHT22;59598;48.112;16.280;2023-07-09T15:56:59;40.80;1.00
54788;DHT22;59598;48.112;16.280;2023-07-09T15:59:35;40.20;1.00
54788;DHT22;59598;48.112;16.280;2023-07-09T16:02:12;41.00;1.00
54788;DHT22;59598;48.112;16.280;2023-07-09T16:04:46;41.50;1.00
54788;DHT22;59598;48.112;16.280;2023-07-09T16:07:21;41.20;1.00
54788;DHT22;59598;48.112;16.280;2023-07-09T16:09:54;41.50;1.00
54788;DHT22;59598;48.112;16.280;2023-07-09T16:12:31;42.20;1.00
54788;DHT22;59598;48.112;16.280;2023-07-09T16:15:09;41.40;1.00
54788;DHT22;59598;48.112;16.280;2023-07-09T16:17:46;40.90;1.00
54788;DHT22;59598;48.112;16.280;2023-07-09T16:20:21;40.10;1.00
54788;DHT22;59598;48.112;16.280;2023-07-09T16:22:57;39.80;1.00
54788;DHT22;59598;48.112;16.280;2023-07-09T16:25:34;40.30;1.00
54788;DHT22;59598;48.112;16.280;2023-07-09T16:28:12;40.50;1.00
54788;DHT22;59598;48.112;16.280;2023-07-09T16:30:47;40.60;1.00
54788;DHT22;59598;48.112;16.280;2023-07-09T16:33:22;41.00;1.00
54788;DHT22;59598;48.112;16.280;2023-07-09T16:35:53;41.10;1.00
54788;DHT22;59598;48.112;16.280;2023-07-09T16:38:26;41.50;1.00
54788;DHT22;59598;48.112;16.280;2023-07-09T16:40:58;41.90;1.00
54788;DHT22;59598;48.112;16.280;2023-07-09T16:43:33;41.90;1.00
54788;DHT22;59598;48.112;16.280;2023-07-09T16:46:31;41.80;1.00
54788;DHT22;59598;48.112;16.280;2023-07-09T16:51:57;40.50;1.00
54788;DHT22;59598;48.112;16.280;2023-07-09T16:54:37;40.60;1.00
54788;DHT22;59598;48.112;16.280;2023-07-09T16:57:20;40.70;1.00
54788;DHT22;59598;48.112;16.280;2023-07-09T17:00:15;40.40;1.00
54788;DHT22;59598;48.112;16.280;2023-07-09T17:02:51;40.00;1.00
54788;DHT22;59598;48.112;16.280;2023-07-09T17:05:26;39.80;1.00